Time;durP1;ratioP1;P1;durP2;ratioP2;P2;SDS_P1;SDS_P2;PMS_P1;PMS_P2;Temp;Humidity;BMP_temperature;BMP_pressure;BME280_temperature;BME280_humidity;BME280_pressure;Samples;Min_cycle;Max_cycle;Signal;HPM_P1;HPM_P2
2023/10/09 00:00:50;;;;;;;3.33;2.57;;;19.10;65.80;18.10;97119.00;;;;5029723;28;20193;-84
2023/10/09 00:03:19;;;;;;;4.17;2.50;;;19.00;65.90;18.00;97122.00;;;;5033612;28;20216;-84
2023/10/09 00:05:52;;;;;;;3.50;2.93;;;19.00;65.90;18.00;97118.00;;;;5033270;28;20294;-84
2023/10/09 00:08:21;;;;;;;3.23;2.10;;;19.00;65.90;18.00;97123.00;;;;5033441;28;20236;-84
2023/10/09 00:10:54;;;;;;;3.00;2.53;;;18.90;65.90;17.90;97107.00;;;;5032765;28;20259;-83
2023/10/09 00:13:26;;;;;;;5.00;2.90;;;18.90;66.00;17.90;97107.00;;;;5033364;28;20211;-84
2023/10/09 00:15:59;;;;;;;4.37;2.57;;;18.90;66.00;17.90;97100.00;;;;5032431;28;20249;-84
2023/10/09 00:18:29;;;;;;;4.93;2.67;;;18.80;66.00;17.80;97102.00;;;;5032997;28;20267;-84
2023/10/09 00:21:01;;;;;;;3.47;2.73;;;18.80;66.10;17.80;97105.00;;;;5051032;28;20696;-84
2023/10/09 00:23:31;;;;;;;4.63;2.60;;;18.80;66.10;17.80;97100.00;;;;5036429;28;20199;-84
2023/10/09 00:26:12;;;;;;;3.43;2.50;;;18.70;66.10;17.70;97090.00;;;;5043933;28;20224;-84
2023/10/09 00:28:44;;;;;;;5.43;3.20;;;18.70;66.10;17.70;97082.00;;;;5033215;28;20293;-84
2023/10/09 00:31:15;;;;;;;3.63;2.47;;;18.70;66.20;17.60;97072.00;;;;5031557;28;20248;-83
2023/10/09 00:33:43;;;;;;;5.47;2.70;;;18.60;66.20;17.60;97071.00;;;;5033383;28;20208;-84
2023/10/09 00:36:10;;;;;;;4.80;2.67;;;18.60;66.30;17.60;97067.00;;;;5036939;28;20224;-84
2023/10/09 00:38:44;;;;;;;3.43;3.00;;;18.60;66.40;17.60;97070.00;;;;5030495;28;20205;-84
2023/10/09 00:41:19;;;;;;;4.47;2.70;;;18.60;66.50;17.60;97068.00;;;;5037843;28;20259;-83
2023/10/09 00:43:49;;;;;;;3.13;2.67;;;18.50;66.50;17.60;97064.00;;;;5052743;28;20283;-84
2023/10/09 00:46:24;;;;;;;4.03;2.73;;;18.50;66.60;17.50;97070.00;;;;5031369;28;20755;-84
2023/10/09 00:48:57;;;;;;;3.80;2.23;;;18.50;66.70;17.50;97060.00;;;;5033591;28;20197;-84
2023/10/09 00:51:26;;;;;;;3.13;2.50;;;18.50;66.70;17.50;97062.00;;;;5035045;28;20219;-84
2023/10/09 00:53:59;;;;;;;2.97;2.33;;;18.50;66.70;17.50;97057.00;;;;5015216;28;20208;-84
2023/10/09 00:56:38;;;;;;;2.77;2.37;;;18.50;66.90;17.50;97056.00;;;;5048872;28;20315;-84
2023/10/09 00:59:14;;;;;;;3.93;3.13;;;18.40;66.80;17.40;97053.00;;;;5052197;28;20196;-84
2023/10/09 01:01:48;;;;;;;3.60;2.80;;;18.40;66.80;17.40;97055.00;;;;5035592;28;20239;-84
2023/10/09 01:04:17;;;;;;;4.50;3.00;;;18.40;66.90;17.40;97053.00;;;;5034419;28;20204;-84
2023/10/09 01:06:53;;;;;;;4.77;2.93;;;18.40;66.90;17.40;97042.00;;;;5052418;28;20228;-82
2023/10/09 01:09:22;;;;;;;3.43;3.00;;;18.30;66.80;17.30;97041.00;;;;5019310;28;20250;-84
2023/10/09 01:12:03;;;;;;;3.53;2.83;;;18.30;66.80;17.30;97038.00;;;;5034666;28;20673;-84
2023/10/09 01:14:31;;;;;;;5.77;3.17;;;18.30;66.90;17.30;97035.00;;;;5050618;28;20211;-84
2023/10/09 01:17:00;;;;;;;3.73;2.90;;;18.30;66.90;17.30;97040.00;;;;5049300;28;20219;-84
2023/10/09 01:19:30;;;;;;;5.97;3.27;;;18.30;67.00;17.30;97033.00;;;;5042056;28;20197;-83
2023/10/09 01:22:04;;;;;;;5.17;2.60;;;18.20;66.90;17.30;97037.00;;;;5043813;28;20256;-84
2023/10/09 01:24:38;;;;;;;3.30;2.70;;;18.20;67.00;17.20;97030.00;;;;5044176;28;20261;-84
2023/10/09 01:27:12;;;;;;;3.83;3.00;;;18.20;67.00;17.20;97030.00;;;;5046454;28;20202;-84
2023/10/09 01:29:41;;;;;;;3.30;2.60;;;18.20;67.00;17.20;97022.00;;;;5035043;28;20687;-84
2023/10/09 01:32:16;;;;;;;3.70;2.47;;;18.20;67.00;17.20;97020.00;;;;5035232;28;20231;-84
2023/10/09 01:34:45;;;;;;;4.20;3.07;;;18.20;67.00;17.10;97023.00;;;;5053561;28;20202;-84
2023/10/09 01:37:18;;;;;;;3.40;2.90;;;18.10;67.00;17.10;97017.00;;;;5037450;28;20203;-84
2023/10/09 01:39:48;;;;;;;3.97;2.90;;;18.10;67.00;17.10;97013.00;;;;5034303;28;20276;-84
2023/10/09 01:42:24;;;;;;;4.97;3.20;;;18.10;67.00;17.10;97007.00;;;;5035743;28;20225;-84
2023/10/09 01:44:52;;;;;;;3.93;2.43;;;18.10;66.90;17.00;97008.00;;;;5019423;28;20252;-84
2023/10/09 01:47:21;;;;;;;3.40;2.80;;;18.00;66.90;17.00;97006.00;;;;5017417;28;20590;-84
2023/10/09 01:49:49;;;;;;;3.93;2.80;;;18.00;66.80;17.00;97008.00;;;;5027137;28;20254;-84
2023/10/09 01:52:18;;;;;;;4.60;2.77;;;18.00;66.90;16.90;97003.00;;;;5038526;28;20205;-83
2023/10/09 01:54:48;;;;;;;5.13;3.53;;;18.00;67.00;16.90;96998.00;;;;5055733;28;20208;-84
2023/10/09 01:57:22;;;;;;;2.70;2.50;;;17.90;66.90;16.90;97003.00;;;;5038604;28;20224;-84
2023/10/09 01:59:53;;;;;;;4.40;2.50;;;17.90;67.00;16.80;97001.00;;;;5055664;28;20215;-84
2023/10/09 02:02:26;;;;;;;5.03;2.83;;;17.90;67.00;16.80;96998.00;;;;5055691;28;20775;-84
2023/10/09 02:05:09;;;;;;;3.67;3.17;;;17.90;67.10;16.80;96992.00;;;;5037507;28;20270;-84
2023/10/09 02:07:51;;;;;;;3.83;2.83;;;17.80;67.00;16.80;96999.00;;;;5055157;28;20244;-84
2023/10/09 02:10:31;;;;;;;4.17;2.70;;;17.80;67.10;16.70;96991.00;;;;5039775;28;20215;-84
2023/10/09 02:13:06;;;;;;;3.43;2.47;;;17.80;67.30;16.70;96989.00;;;;5054395;28;20209;-84
2023/10/09 02:15:51;;;;;;;3.77;2.60;;;17.70;67.30;16.70;96984.00;;;;5054434;28;20289;-84
2023/10/09 02:18:26;;;;;;;5.07;2.77;;;17.70;67.40;16.70;96997.00;;;;5053255;28;20739;-84
2023/10/09 02:21:12;;;;;;;4.47;2.83;;;17.70;67.50;16.70;96996.00;;;;5035572;28;20674;-84
2023/10/09 02:23:41;;;;;;;4.43;3.03;;;17.70;67.60;16.70;96989.00;;;;5041935;28;20217;-84
2023/10/09 02:26:17;;;;;;;3.13;2.70;;;17.70;67.70;16.70;96990.00;;;;5033424;28;20704;-84
2023/10/09 02:28:52;;;;;;;3.67;2.80;;;17.70;67.90;16.60;96989.00;;;;5044203;28;20201;-84
2023/10/09 02:31:22;;;;;;;4.23;2.57;;;17.60;67.80;16.60;96996.00;;;;5054840;28;20204;-84
2023/10/09 02:33:53;;;;;;;4.87;2.83;;;17.60;67.90;16.60;96986.00;;;;5054106;28;20208;-84
2023/10/09 02:36:20;;;;;;;4.03;2.90;;;17.60;67.90;16.60;96980.00;;;;5055335;28;20216;-84
2023/10/09 02:38:48;;;;;;;3.47;2.50;;;17.60;67.90;16.60;96969.00;;;;5054765;28;20205;-84
2023/10/09 02:41:28;;;;;;;3.50;2.47;;;17.60;68.10;16.60;96970.00;;;;5054987;28;20232;-84
2023/10/09 02:43:56;;;;;;;5.37;3.27;;;17.60;68.10;16.60;96960.00;;;;5054887;28;20227;-84
2023/10/09 02:46:30;;;;;;;2.90;2.40;;;17.60;68.00;16.60;96963.00;;;;5055053;28;20863;-84
2023/10/09 02:48:58;;;;;;;3.70;2.57;;;17.60;67.90;16.60;96956.00;;;;5022226;28;20558;-84
2023/10/09 02:51:35;;;;;;;4.90;3.07;;;17.60;68.00;16.60;96954.00;;;;5043233;28;20209;-84
2023/10/09 02:54:26;;;;;;;4.47;2.80;;;17.60;68.00;16.60;96950.00;;;;5028586;28;20217;-84
2023/10/09 02:56:57;;;;;;;4.70;3.00;;;17.60;68.10;16.60;96948.00;;;;5022408;28;20237;-84
2023/10/09 02:59:25;;;;;;;3.53;2.70;;;17.60;68.10;16.50;96949.00;;;;5035113;28;20592;-84
2023/10/09 03:01:53;;;;;;;3.40;2.67;;;17.60;68.20;16.50;96950.00;;;;5017040;28;20275;-84
2023/10/09 03:04:23;;;;;;;4.70;3.23;;;17.60;68.30;16.50;96950.00;;;;5017077;28;20201;-84
2023/10/09 03:06:50;;;;;;;4.20;2.97;;;17.50;68.20;16.60;96945.00;;;;5034351;28;20233;-83
2023/10/09 03:09:18;;;;;;;5.27;2.83;;;17.50;68.40;16.60;96945.00;;;;5033351;28;20206;-84
2023/10/09 03:11:48;;;;;;;3.83;2.93;;;17.50;68.60;16.60;96948.00;;;;5018311;28;20240;-84
2023/10/09 03:14:16;;;;;;;4.43;2.90;;;17.50;68.70;16.60;96948.00;;;;5034515;28;20201;-84
2023/10/09 03:16:44;;;;;;;3.63;2.80;;;17.50;68.60;16.60;96946.00;;;;5052106;28;20225;-83
2023/10/09 03:19:13;;;;;;;3.43;2.77;;;17.50;68.50;16.60;96953.00;;;;5052183;28;20204;-83
2023/10/09 03:21:40;;;;;;;3.50;3.20;;;17.50;68.40;16.60;96947.00;;;;5033475;28;20592;-84
2023/10/09 03:24:10;;;;;;;3.53;2.73;;;17.50;68.40;16.50;96937.00;;;;5045553;28;20193;-83
2023/10/09 03:26:39;;;;;;;5.27;2.70;;;17.50;68.30;16.50;96941.00;;;;5051049;28;20590;-84
2023/10/09 03:29:10;;;;;;;5.53;3.20;;;17.50;68.20;16.50;96944.00;;;;5054573;28;20204;-84
2023/10/09 03:31:38;;;;;;;3.53;2.80;;;17.50;68.10;16.50;96939.00;;;;5053839;28;20215;-84
2023/10/09 03:34:08;;;;;;;3.40;2.90;;;17.50;68.20;16.50;96938.00;;;;5053996;28;20692;-84
2023/10/09 03:36:38;;;;;;;5.90;2.63;;;17.50;68.20;16.50;96937.00;;;;5053531;28;20224;-84
2023/10/09 03:39:18;;;;;;;3.60;2.77;;;17.50;68.20;16.50;96935.00;;;;5053835;28;20223;-84
2023/10/09 03:41:47;;;;;;;5.30;3.33;;;17.50;68.20;16.50;96938.00;;;;5038178;28;20315;-84
2023/10/09 03:44:16;;;;;;;4.07;3.03;;;17.50;68.20;16.50;96931.00;;;;5020478;28;20293;-84
2023/10/09 03:46:45;;;;;;;4.13;2.77;;;17.50;68.20;16.40;96930.00;;;;5034955;28;20303;-84
2023/10/09 03:49:15;;;;;;;4.87;3.00;;;17.40;68.20;16.40;96930.00;;;;5053698;28;20205;-83
2023/10/09 03:51:45;;;;;;;3.73;2.83;;;17.40;68.30;16.40;96924.00;;;;5035389;28;20233;-84
2023/10/09 03:54:13;;;;;;;3.63;2.90;;;17.40;68.40;16.40;96928.00;;;;5033758;28;20212;-84
2023/10/09 03:56:40;;;;;;;4.77;2.67;;;17.40;68.50;16.40;96921.00;;;;5033678;28;20229;-84
2023/10/09 03:59:10;;;;;;;2.90;2.60;;;17.40;68.50;16.40;96921.00;;;;5033782;28;20275;-84
2023/10/09 04:01:39;;;;;;;5.17;3.10;;;17.40;68.50;16.40;96921.00;;;;5034036;28;20318;-84
2023/10/09 04:04:10;;;;;;;4.23;2.47;;;17.40;68.50;16.40;96913.00;;;;5037674;28;20211;-84
2023/10/09 04:06:37;;;;;;;4.30;2.90;;;17.40;68.50;16.40;96912.00;;;;5053171;28;20227;-84
2023/10/09 04:09:27;;;;;;;4.40;2.60;;;17.40;69.20;16.40;96913.00;;;;5033924;28;20200;-84
2023/10/09 04:14:49;;;;;;;3.50;2.60;;;17.40;68.40;16.30;96913.00;;;;5035786;28;20661;-84
2023/10/09 04:22:50;;;;;;;3.80;2.80;;;17.30;68.30;16.30;96906.00;;;;5051728;28;20712;-84
2023/10/09 04:25:25;;;;;;;5.27;3.00;;;17.30;68.20;16.30;96920.00;;;;5035651;28;20311;-84
2023/10/09 04:27:59;;;;;;;4.73;3.23;;;17.30;68.20;16.30;96910.00;;;;5052362;28;20283;-84
2023/10/09 04:30:28;;;;;;;3.40;2.67;;;17.30;68.20;16.20;96916.00;;;;5052728;28;20262;-84
2023/10/09 04:32:59;;;;;;;3.97;2.50;;;17.30;68.20;16.20;96911.00;;;;5051940;28;20350;-84
2023/10/09 04:35:32;;;;;;;4.80;3.03;;;17.30;68.20;16.20;96915.00;;;;5052266;28;20611;-85
2023/10/09 04:38:05;;;;;;;5.20;3.23;;;17.30;68.30;16.20;96917.00;;;;5040755;28;20212;-84
2023/10/09 04:40:53;;;;;;;4.63;2.80;;;17.20;68.80;16.20;96918.00;;;;5032787;28;20228;-84
2023/10/09 04:43:21;;;;;;;5.97;3.43;;;17.20;68.60;16.20;96927.00;;;;5032882;28;20232;-84
2023/10/09 04:48:38;;;;;;;4.60;3.00;;;17.20;68.70;16.10;96921.00;;;;5052139;28;20580;-83
2023/10/09 04:51:34;;;;;;;4.67;2.57;;;17.20;68.70;16.10;96914.00;;;;5020104;28;20211;-83
2023/10/09 04:54:13;;;;;;;4.53;2.73;;;17.10;68.60;16.10;96913.00;;;;5034920;28;20204;-84
2023/10/09 04:56:51;;;;;;;4.17;2.60;;;17.10;68.50;16.00;96914.00;;;;5019562;28;20228;-84
2023/10/09 04:59:24;;;;;;;3.03;2.40;;;17.10;68.40;16.00;96910.00;;;;5034214;28;20192;-84
2023/10/09 05:01:58;;;;;;;6.00;2.70;;;17.10;68.40;16.00;96910.00;;;;5032771;28;20233;-84
2023/10/09 05:04:39;;;;;;;3.80;2.67;;;17.00;68.30;16.00;96904.00;;;;5034155;28;20210;-84
2023/10/09 05:07:50;;;;;;;5.40;2.80;;;17.00;68.30;16.00;96903.00;;;;5052332;28;20287;-84
2023/10/09 05:10:16;;;;;;;4.87;2.37;;;17.00;68.30;15.90;96904.00;;;;5050096;28;20768;-83
2023/10/09 05:12:47;;;;;;;3.13;2.47;;;17.00;68.20;15.90;96898.00;;;;5050595;28;20345;-84
2023/10/09 05:15:14;;;;;;;9.47;3.27;;;17.00;68.20;15.90;96897.00;;;;5042045;28;20751;-84
2023/10/09 05:17:51;;;;;;;5.57;2.83;;;17.00;68.20;15.90;96896.00;;;;5022531;28;20308;-83
2023/10/09 05:23:25;;;;;;;5.10;3.27;;;16.90;68.40;15.80;96892.00;;;;5034431;28;20260;-82
2023/10/09 05:25:55;;;;;;;3.33;3.03;;;16.90;68.50;15.80;96895.00;;;;5032644;28;20232;-82
2023/10/09 05:28:30;;;;;;;4.53;2.90;;;16.90;68.50;15.90;96892.00;;;;5030559;28;20629;-82
2023/10/09 05:31:06;;;;;;;4.90;3.43;;;16.90;68.60;15.90;96897.00;;;;5035594;28;20665;-82
2023/10/09 05:33:36;;;;;;;4.67;3.13;;;16.90;68.60;15.90;96891.00;;;;5051668;28;20639;-82
2023/10/09 05:36:17;;;;;;;5.73;3.10;;;16.90;68.60;15.90;96888.00;;;;5051858;28;20761;-82
2023/10/09 05:38:58;;;;;;;5.43;3.23;;;16.90;68.80;15.90;96892.00;;;;5049187;28;20250;-82
2023/10/09 05:41:47;;;;;;;4.40;2.80;;;16.90;69.60;15.90;96889.00;;;;5043767;28;20288;-82
2023/10/09 05:50:02;;;;;;;4.47;2.80;;;17.00;68.90;16.00;96908.00;;;;5015317;28;20261;-82
2023/10/09 05:52:32;;;;;;;4.57;2.80;;;17.00;69.00;16.00;96908.00;;;;5036910;28;20298;-82
2023/10/09 06:03:24;;;;;;;6.70;2.80;;;17.10;69.50;16.10;96905.00;;;;5033712;28;20304;-82
2023/10/09 06:06:04;;;;;;;4.63;2.87;;;17.10;69.70;16.20;96899.00;;;;5030351;28;20613;-82
2023/10/09 06:09:10;;;;;;;3.13;2.30;;;17.20;69.90;16.20;96901.00;;;;5036310;28;20212;-82
2023/10/09 06:11:39;;;;;;;6.20;3.47;;;17.20;69.90;16.20;96903.00;;;;5055218;28;20200;-82
2023/10/09 06:14:13;;;;;;;5.67;2.70;;;17.20;69.90;16.30;96907.00;;;;5032719;28;20213;-82
2023/10/09 06:16:43;;;;;;;6.33;2.87;;;17.30;70.00;16.30;96905.00;;;;5042333;28;20701;-81
2023/10/09 06:19:26;;;;;;;4.30;2.73;;;17.30;70.10;16.40;96906.00;;;;5060177;28;20207;-81
2023/10/09 06:24:42;;;;;;;5.33;2.73;;;17.40;70.10;16.50;96904.00;;;;5036404;28;20208;-83
2023/10/09 06:27:24;;;;;;;10.80;3.67;;;17.40;70.10;16.50;96906.00;;;;5035957;28;20205;-82
2023/10/09 06:30:14;;;;;;;5.77;2.50;;;17.40;70.10;16.60;96904.00;;;;5036637;28;20255;-79
2023/10/09 06:32:50;;;;;;;10.93;3.20;;;17.50;70.00;16.60;96926.00;;;;5054833;28;20228;-82
2023/10/09 06:35:18;;;;;;;7.17;3.03;;;17.60;70.10;16.70;96921.00;;;;5055941;28;20726;-82
2023/10/09 06:43:29;;;;;;;4.83;2.60;;;17.60;70.10;16.80;96920.00;;;;5055723;28;20227;-82
2023/10/09 06:48:44;;;;;;;6.37;3.03;;;17.70;70.10;16.90;96925.00;;;;5033258;28;20201;-82
2023/10/09 06:51:34;;;;;;;7.20;3.27;;;17.80;70.10;16.90;96926.00;;;;5027996;28;20201;-82
2023/10/09 06:54:07;;;;;;;4.73;2.90;;;17.80;70.30;17.00;96926.00;;;;5011875;28;20205;-82
2023/10/09 06:57:12;;;;;;;5.13;3.47;;;17.80;70.50;17.10;96928.00;;;;5051646;28;20923;-82
2023/10/09 07:02:31;;;;;;;7.40;3.13;;;18.00;70.60;17.20;96940.00;;;;5050684;28;20256;-82
2023/10/09 07:05:10;;;;;;;5.93;2.90;;;18.10;70.80;17.30;96943.00;;;;5040653;28;20360;-82
2023/10/09 07:07:50;;;;;;;6.67;3.10;;;18.10;70.90;17.40;96946.00;;;;5031337;28;20216;-82
2023/10/09 07:10:39;;;;;;;4.40;2.90;;;18.20;71.10;17.50;96953.00;;;;5033283;28;20201;-82
2023/10/09 07:13:06;;;;;;;5.27;2.67;;;18.30;71.30;17.60;96945.00;;;;5048089;28;20205;-82
2023/10/09 07:18:45;;;;;;;7.40;2.70;;;18.40;71.30;17.70;96939.00;;;;5018421;28;20209;-83
2023/10/09 07:21:18;;;;;;;4.70;2.73;;;18.50;71.00;17.80;96943.00;;;;5036857;28;20212;-82
2023/10/09 07:23:49;;;;;;;8.97;2.67;;;18.60;70.80;17.90;96938.00;;;;5036113;28;20282;-83
2023/10/09 07:26:23;;;;;;;6.67;3.03;;;18.70;70.80;18.00;96946.00;;;;5054210;28;20221;-83
2023/10/09 07:28:50;;;;;;;10.60;3.90;;;18.70;70.80;18.20;96939.00;;;;5032477;28;20662;-83
2023/10/09 07:31:26;;;;;;;8.17;2.63;;;18.80;71.10;18.30;96953.00;;;;5034218;28;20225;-83
2023/10/09 07:34:30;;;;;;;7.57;3.23;;;18.90;71.40;18.40;96947.00;;;;5033844;28;20215;-83
2023/10/09 07:36:49;;;;;;;5.90;2.37;;;19.00;71.20;18.60;96937.00;;;;5033218;28;20309;-83
2023/10/09 07:39:17;;;;;;;6.83;2.90;;;19.20;71.20;18.70;96934.00;;;;5032253;28;20209;-82
2023/10/09 07:42:01;;;;;;;7.70;2.83;;;19.30;70.90;18.80;96945.00;;;;5032633;28;20233;-83
2023/10/09 07:44:38;;;;;;;5.57;2.80;;;19.40;70.80;19.00;96937.00;;;;5033481;28;20208;-83
2023/10/09 07:47:19;;;;;;;9.03;2.93;;;19.50;70.60;19.10;96949.00;;;;5046082;28;20200;-82
2023/10/09 07:49:53;;;;;;;8.90;2.77;;;19.70;70.50;19.30;96950.00;;;;5050357;28;20200;-83
2023/10/09 07:52:26;;;;;;;7.50;2.57;;;19.80;70.50;19.40;96954.00;;;;5046687;28;20208;-82
2023/10/09 07:55:01;;;;;;;5.37;2.03;;;19.90;70.20;19.50;96944.00;;;;5051466;28;20230;-83
2023/10/09 07:57:38;;;;;;;7.60;2.60;;;20.00;70.00;19.60;96950.00;;;;5051368;28;20291;-83
2023/10/09 08:00:36;;;;;;;6.17;2.50;;;20.20;69.70;19.80;96957.00;;;;5051486;28;20203;-82
2023/10/09 08:03:03;;;;;;;9.53;2.67;;;20.30;69.30;19.90;96971.00;;;;5051115;28;20259;-83
2023/10/09 08:05:34;;;;;;;7.50;2.00;;;20.40;68.80;20.00;96967.00;;;;5051874;28;20228;-83
2023/10/09 08:08:18;;;;;;;7.73;2.40;;;20.50;68.80;20.10;96973.00;;;;5052757;28;20665;-83
2023/10/09 08:16:17;;;;;;;8.13;2.30;;;20.90;68.10;20.50;96987.00;;;;5037978;28;20251;-83
2023/10/09 08:18:44;;;;;;;4.67;2.30;;;21.00;67.90;20.60;96987.00;;;;5052361;28;20219;-82
2023/10/09 08:21:41;;;;;;;5.83;2.00;;;21.10;67.90;20.70;96981.00;;;;5032531;28;20213;-83
2023/10/09 08:24:40;;;;;;;4.80;2.13;;;21.20;67.40;20.80;96988.00;;;;5032592;28;20229;-83
2023/10/09 08:27:28;;;;;;;5.87;2.87;;;21.30;67.10;20.90;96986.00;;;;5017616;28;20229;-82
2023/10/09 08:29:46;;;;;;;5.80;2.07;;;21.40;67.00;21.00;97001.00;;;;5032543;28;20549;-82
2023/10/09 08:32:38;;;;;;;4.63;1.93;;;21.50;66.70;21.10;96989.00;;;;5014408;28;20288;-83
2023/10/09 08:35:19;;;;;;;7.30;1.70;;;21.60;66.20;21.20;96992.00;;;;5045542;28;20277;-83
2023/10/09 08:37:49;;;;;;;6.30;1.93;;;21.70;65.90;21.30;96998.00;;;;5021458;28;20243;-83
2023/10/09 08:40:21;;;;;;;8.13;2.63;;;21.80;66.00;21.40;96990.00;;;;5052020;28;20212;-83
2023/10/09 08:42:54;;;;;;;4.53;1.97;;;21.90;65.40;21.50;96993.00;;;;5034062;28;20228;-83
2023/10/09 08:45:27;;;;;;;4.37;2.10;;;22.00;64.40;21.60;96992.00;;;;5051117;28;20248;-83
2023/10/09 08:47:55;;;;;;;5.20;2.30;;;22.00;64.40;21.70;97003.00;;;;5033227;28;20215;-83
2023/10/09 08:50:28;;;;;;;6.73;2.03;;;22.10;64.40;21.80;96987.00;;;;5036502;28;20297;-83
2023/10/09 08:52:57;;;;;;;6.80;2.63;;;22.20;64.60;21.90;96990.00;;;;5033874;28;20200;-83
2023/10/09 08:55:24;;;;;;;5.67;2.20;;;22.30;64.30;22.00;97004.00;;;;5050380;28;20226;-83
2023/10/09 08:57:52;;;;;;;6.30;1.90;;;22.40;64.50;22.10;96998.00;;;;5012795;28;20779;-83
2023/10/09 09:00:23;;;;;;;4.37;1.77;;;22.50;64.90;22.30;97014.00;;;;5013574;28;20229;-83
2023/10/09 09:02:52;;;;;;;8.80;2.67;;;22.60;65.00;22.40;97007.00;;;;5030566;28;20228;-83
2023/10/09 09:05:21;;;;;;;4.83;2.17;;;22.80;64.70;22.40;97015.00;;;;5031955;28;20722;-83
2023/10/09 09:07:50;;;;;;;7.73;2.00;;;22.80;64.30;22.50;97019.00;;;;5032068;28;20340;-83
2023/10/09 09:10:21;;;;;;;3.97;1.83;;;22.90;64.20;22.60;97014.00;;;;5032002;28;20201;-83
2023/10/09 09:12:53;;;;;;;6.63;2.00;;;23.00;63.60;22.70;97017.00;;;;5034854;28;20337;-83
2023/10/09 09:15:22;;;;;;;7.97;2.57;;;23.10;62.80;22.80;97021.00;;;;5051585;28;20262;-83
2023/10/09 09:17:50;;;;;;;6.20;2.13;;;23.20;63.10;22.80;97014.00;;;;5052043;28;20299;-83
2023/10/09 09:20:25;;;;;;;6.37;2.17;;;23.20;62.70;22.90;97017.00;;;;5040117;28;20207;-83
2023/10/09 09:22:57;;;;;;;6.43;1.80;;;23.30;62.40;22.90;97014.00;;;;5031770;28;20869;-83
2023/10/09 09:25:30;;;;;;;9.43;2.50;;;23.40;62.70;23.00;97007.00;;;;5031951;28;20232;-83
2023/10/09 09:28:09;;;;;;;6.27;1.93;;;23.40;62.60;23.00;97014.00;;;;5035623;28;20291;-83
2023/10/09 09:30:37;;;;;;;6.50;2.20;;;23.50;62.50;23.10;97016.00;;;;5051383;28;20287;-83
2023/10/09 09:33:26;;;;;;;7.60;2.97;;;23.50;62.20;23.10;97022.00;;;;5034264;28;20210;-83
2023/10/09 09:36:03;;;;;;;9.47;2.10;;;23.60;61.60;23.10;97020.00;;;;5050967;28;20775;-83
2023/10/09 09:38:47;;;;;;;6.37;2.23;;;23.60;60.90;23.20;97028.00;;;;5051304;28;20203;-83
2023/10/09 09:41:23;;;;;;;9.70;2.83;;;23.70;61.50;23.20;97029.00;;;;5021844;28;20221;-83
2023/10/09 09:43:57;;;;;;;3.77;1.70;;;23.70;61.50;23.20;97023.00;;;;5031332;28;20224;-84
2023/10/09 09:46:33;;;;;;;7.03;2.60;;;23.70;61.60;23.30;97030.00;;;;5034304;28;20682;-83
2023/10/09 09:49:02;;;;;;;6.03;2.00;;;23.70;61.00;23.30;97027.00;;;;5022587;28;20239;-83
2023/10/09 09:51:32;;;;;;;5.07;2.17;;;23.80;61.20;23.40;97036.00;;;;5046485;28;20205;-83
2023/10/09 09:54:01;;;;;;;3.57;2.00;;;23.80;61.60;23.40;97043.00;;;;5054117;28;20215;-83
2023/10/09 09:56:31;;;;;;;8.00;2.93;;;23.80;61.80;23.40;97051.00;;;;5054770;28;20233;-83
2023/10/09 09:59:07;;;;;;;4.40;2.30;;;23.90;62.30;23.40;97040.00;;;;5036997;28;20200;-83
2023/10/09 10:01:41;;;;;;;8.90;1.97;;;23.90;62.00;23.50;97043.00;;;;5055389;28;20204;-83
2023/10/09 10:04:13;;;;;;;4.67;2.13;;;24.00;61.40;23.50;97035.00;;;;5055068;28;20286;-84
2023/10/09 10:06:45;;;;;;;3.20;1.67;;;24.00;62.00;23.50;97038.00;;;;5055019;28;20238;-83
2023/10/09 10:09:41;;;;;;;6.77;2.53;;;24.00;61.40;23.60;97038.00;;;;5039788;28;20197;-83
2023/10/09 10:12:10;;;;;;;3.77;2.10;;;24.10;59.80;23.60;97039.00;;;;5066848;28;20204;-83
2023/10/09 10:14:56;;;;;;;5.83;1.93;;;24.10;60.50;23.60;97040.00;;;;5066790;28;20233;-83
2023/10/09 10:17:24;;;;;;;5.97;1.90;;;24.10;61.20;23.70;97043.00;;;;5060812;28;20703;-83
2023/10/09 10:20:25;;;;;;;7.33;2.30;;;24.20;61.10;23.70;97047.00;;;;5052298;28;20634;-84
2023/10/09 10:22:51;;;;;;;4.10;2.10;;;24.20;60.00;23.80;97050.00;;;;5035092;28;20220;-83
2023/10/09 10:25:41;;;;;;;7.47;2.80;;;24.30;60.30;23.80;97050.00;;;;5035014;28;20270;-84
2023/10/09 10:28:38;;;;;;;5.40;2.87;;;24.30;60.00;23.80;97042.00;;;;5035279;28;20620;-83
2023/10/09 10:31:07;;;;;;;7.20;2.33;;;24.30;59.90;23.90;97051.00;;;;5034710;28;20605;-84
2023/10/09 10:34:07;;;;;;;6.53;1.90;;;24.40;60.40;24.00;97047.00;;;;5043001;28;20282;-83
2023/10/09 10:36:34;;;;;;;8.30;2.27;;;24.40;59.00;24.00;97045.00;;;;5030653;28;20227;-83
2023/10/09 10:39:10;;;;;;;6.20;2.03;;;24.40;59.90;24.10;97057.00;;;;5035119;28;20711;-83
2023/10/09 10:41:50;;;;;;;9.90;2.73;;;24.50;60.20;24.10;97048.00;;;;5052838;28;20227;-84
2023/10/09 10:44:36;;;;;;;10.20;2.77;;;24.50;59.00;24.10;97057.00;;;;5036927;28;20228;-84
2023/10/09 10:47:04;;;;;;;8.10;2.40;;;24.60;59.20;24.20;97054.00;;;;5052881;28;20250;-84
2023/10/09 10:49:37;;;;;;;4.27;2.00;;;24.60;58.90;24.20;97053.00;;;;5045614;28;20291;-83
2023/10/09 10:52:17;;;;;;;8.37;2.07;;;24.60;59.00;24.30;97049.00;;;;5024671;28;20670;-84
2023/10/09 10:54:47;;;;;;;5.73;1.93;;;24.70;58.80;24.30;97044.00;;;;5043814;28;20579;-83
2023/10/09 10:57:52;;;;;;;4.90;2.37;;;24.70;58.90;24.30;97045.00;;;;5036846;28;20292;-84
2023/10/09 11:03:13;;;;;;;7.23;2.20;;;24.80;58.80;24.40;97042.00;;;;5052970;28;20204;-84
2023/10/09 11:05:43;;;;;;;7.17;2.13;;;24.80;58.30;24.50;97046.00;;;;5053719;28;20617;-83
2023/10/09 11:08:14;;;;;;;6.37;2.00;;;24.90;58.00;24.50;97042.00;;;;5053705;28;20231;-84
2023/10/09 11:10:50;;;;;;;7.63;2.10;;;24.90;57.60;24.50;97043.00;;;;5050367;28;20272;-84
2023/10/09 11:13:33;;;;;;;11.80;3.07;;;24.90;57.00;24.60;97036.00;;;;5042584;28;20700;-83
2023/10/09 11:19:04;;;;;;;6.50;2.37;;;25.00;56.60;24.70;97023.00;;;;5145143;27;20544;-85
2023/10/09 11:21:32;;;;;;;7.10;2.50;;;25.10;56.60;24.80;97027.00;;;;5116738;28;20197;-85
2023/10/09 11:24:24;;;;;;;8.37;2.40;;;25.10;55.90;24.80;97021.00;;;;5110747;28;20203;-85
2023/10/09 11:26:54;;;;;;;5.33;2.07;;;25.10;55.50;24.80;97015.00;;;;5121662;27;20699;-85
2023/10/09 11:29:29;;;;;;;5.67;2.53;;;25.20;55.60;24.90;97021.00;;;;5115735;28;20603;-85
2023/10/09 11:32:00;;;;;;;7.53;2.53;;;25.20;55.30;24.90;97022.00;;;;5124639;28;20201;-85
2023/10/09 11:34:31;;;;;;;11.63;2.80;;;25.20;55.10;24.90;97025.00;;;;5109367;27;20273;-86
2023/10/09 11:36:59;;;;;;;10.60;2.40;;;25.30;55.00;24.90;97016.00;;;;5116674;28;20228;-84
2023/10/09 11:39:37;;;;;;;6.60;2.00;;;25.30;55.00;24.90;97021.00;;;;5113625;27;20201;-85
2023/10/09 11:42:14;;;;;;;6.43;2.37;;;25.30;54.50;25.00;97021.00;;;;5110173;28;20194;-86
2023/10/09 11:44:45;;;;;;;7.93;2.40;;;25.40;54.20;25.00;97012.00;;;;5113197;28;20206;-86
2023/10/09 11:47:23;;;;;;;6.53;2.47;;;25.40;55.10;25.00;97020.00;;;;5122651;27;20286;-87
2023/10/09 11:50:16;;;;;;;9.07;3.10;;;25.40;54.50;25.00;97012.00;;;;5115737;28;20721;-85
2023/10/09 11:53:08;;;;;;;6.53;2.57;;;25.40;54.20;25.10;97011.00;;;;5122457;27;20199;-85
2023/10/09 11:55:37;;;;;;;9.37;2.67;;;25.40;53.90;25.10;97006.00;;;;5120541;27;20222;-85
2023/10/09 11:58:04;;;;;;;7.53;2.37;;;25.40;54.10;25.10;97004.00;;;;5124102;27;20309;-85
2023/10/09 12:00:44;;;;;;;9.47;2.40;;;25.50;54.00;25.20;97002.00;;;;5121932;27;20194;-85
2023/10/09 12:03:13;;;;;;;5.93;2.23;;;25.50;54.00;25.20;96999.00;;;;5114718;27;20671;-85
2023/10/09 12:05:44;;;;;;;13.97;3.27;;;25.50;54.30;25.20;97004.00;;;;5121372;27;20222;-84
2023/10/09 12:08:15;;;;;;;7.67;2.40;;;25.60;54.50;25.20;96997.00;;;;5124902;27;20208;-85
2023/10/09 12:10:43;;;;;;;8.00;2.83;;;25.60;54.20;25.30;97002.00;;;;5118980;27;20276;-85
2023/10/09 12:13:10;;;;;;;9.13;2.20;;;25.60;54.40;25.30;97000.00;;;;5127670;27;20289;-84
2023/10/09 12:15:40;;;;;;;8.13;2.73;;;25.60;53.90;25.30;97004.00;;;;5126788;27;20233;-84
2023/10/09 12:18:14;;;;;;;6.83;2.73;;;25.60;53.50;25.30;97013.00;;;;5119911;28;20221;-85
2023/10/09 12:20:50;;;;;;;7.00;2.43;;;25.60;53.50;25.30;97011.00;;;;5120313;27;20209;-86
2023/10/09 12:23:19;;;;;;;6.33;2.27;;;25.70;53.10;25.30;97021.00;;;;5127213;27;20204;-85